Lobo

Go HERE for most recent data if this page is not up to date.

Jump to table bottom
Date/Time Temp deg F RH % 24 Hr Snow (in) Snow Depth (in) H2O (in)
01/27 22:00 14.8 74 -0.0 36.5 0.00
01/27 21:00 14.8 69 -0.0 36.7 0.00
01/27 20:00 11.8 72 0.0 36.8 0.00
01/27 19:00 11.4 86 -0.1 36.5 0.00
01/27 18:00 12.8 79 -0.2 36.3 0.00
01/27 17:00 14.0 73 -0.2 36.4 0.00
01/27 16:00 15.4 69 -0.2 36.4 0.00
01/27 15:00 15.0 59 -0.1 36.5 0.00
01/27 14:00 15.3 61 -0.2 36.4 0.00
01/27 13:00 16.3 61 -0.2 36.3 0.00
01/27 12:00 14.8 61 -0.1 36.6 0.00
01/27 11:00 12.6 72 -0.0 36.7 0.00
01/27 10:00 10.2 73 0.0 36.9 0.00
01/27 09:00 7.6 77 0.0 36.9 0.00
01/27 08:00 6.2 81 0.0 36.8 0.00
01/27 07:00 7.0 74 -0.0 36.8 0.00
01/27 06:00 4.3 82 0.0 36.9 0.00
01/27 05:00 5.0 78 -0.0 36.7 0.00
01/27 04:00 7.6 64 -0.0 36.8 0.00
01/27 03:00 4.9 71 -0.0 36.8 0.00
01/27 02:00 7.9 71 -0.1 36.7 0.00
01/27 01:00 7.9 66 -0.0 36.9 0.00
01/27 00:00 8.4 65 0.0 36.9 0.00
01/26 23:00 6.5 73 0.0 37.0 0.00
01/26 22:00 8.6 69 -0.0 36.8 0.00
01/26 21:00 9.2 71 -0.0 36.9 0.00
01/26 20:00 9.4 74 -0.0 36.9 0.00
01/26 19:00 9.8 73 -0.0 36.9 0.00
01/26 18:00 10.4 72 -0.0 36.9 0.00
01/26 17:00 12.0 61 -0.1 36.6 0.00
01/26 16:00 14.2 55 -0.1 36.6 0.00
01/26 15:00 15.7 54 -0.3 36.4 0.00
01/26 14:00 15.2 51 -0.2 36.5 0.00
01/26 13:00 14.4 53 -0.2 36.7 0.00
01/26 12:00 11.9 61 -0.0 36.8 0.00
01/26 11:00 10.0 64 -0.1 36.8 0.00
01/26 10:00 8.5 67 -0.0 36.8 0.00
01/26 09:00 5.6 77 0.0 37.1 0.00
01/26 08:00 3.3 82 0.0 37.0 0.00
01/26 07:00 4.6 84 -0.0 36.9 0.00
01/26 06:00 5.7 80 0.0 37.0 0.00
01/26 05:00 6.5 79 0.0 37.0 0.00
01/26 04:00 7.1 80 0.0 37.1 0.00
01/26 03:00 7.2 82 0.0 37.0 0.00
01/26 02:00 8.0 79 -0.0 37.1 0.00
01/26 01:00 8.2 74 0.0 37.1 0.00
01/26 00:00 8.3 71 0.0 37.2 0.00
.